Time;durP1;ratioP1;P1;durP2;ratioP2;P2;SDS_P1;SDS_P2;PMS_P1;PMS_P2;Temp;Humidity;BMP_temperature;BMP_pressure;BME280_temperature;BME280_humidity;BME280_pressure;Samples;Min_cycle;Max_cycle;Signal;HPM_P1;HPM_P2
2022/10/26 00:00:47;;;;;;;2.33;0.45;;;9.00;99.90;;;;;;5066700;28;20027;-74
2022/10/26 00:03:13;;;;;;;1.80;0.50;;;9.10;99.90;;;;;;5046823;28;20036;-74
2022/10/26 00:05:39;;;;;;;2.22;0.65;;;9.10;99.90;;;;;;5068553;28;20029;-83
2022/10/26 00:08:06;;;;;;;3.25;0.60;;;9.30;99.90;;;;;;5062300;28;20033;-76
2022/10/26 00:10:34;;;;;;;3.08;0.68;;;9.20;99.90;;;;;;5051442;28;20036;-75
2022/10/26 00:13:00;;;;;;;1.40;0.43;;;9.20;99.90;;;;;;5066559;28;20071;-75
2022/10/26 00:15:26;;;;;;;2.97;0.40;;;9.40;99.90;;;;;;5065478;28;20044;-74
2022/10/26 00:17:52;;;;;;;4.30;0.57;;;9.30;99.90;;;;;;5064966;28;20437;-76
2022/10/26 00:20:18;;;;;;;1.95;0.68;;;9.40;99.90;;;;;;5065382;28;20059;-76
2022/10/26 00:22:43;;;;;;;1.33;0.40;;;9.30;99.90;;;;;;5073738;28;20025;-83
2022/10/26 00:25:09;;;;;;;3.30;0.50;;;9.40;99.90;;;;;;5064601;28;20028;-83
2022/10/26 00:27:35;;;;;;;1.73;0.40;;;9.40;99.90;;;;;;5050680;28;20032;-75
2022/10/26 00:30:01;;;;;;;2.80;0.50;;;9.30;99.90;;;;;;5051204;28;20036;-81
2022/10/26 00:32:27;;;;;;;5.88;0.77;;;9.30;99.90;;;;;;5062111;28;20040;-81
2022/10/26 00:34:53;;;;;;;1.73;0.60;;;9.40;99.90;;;;;;5044256;28;20499;-75
2022/10/26 00:37:18;;;;;;;2.50;0.43;;;9.40;99.90;;;;;;5066506;28;20024;-75
2022/10/26 00:39:44;;;;;;;2.25;0.50;;;9.40;99.90;;;;;;5050329;28;20377;-81
2022/10/26 00:42:21;;;;;;;3.60;0.50;;;9.30;99.90;;;;;;5049623;28;20488;-77
2022/10/26 00:44:46;;;;;;;2.80;0.50;;;9.20;99.90;;;;;;5066425;28;20040;-75
2022/10/26 00:47:30;;;;;;;2.45;0.50;;;9.20;99.90;;;;;;5063678;28;20016;-83
2022/10/26 00:49:58;;;;;;;2.45;0.50;;;9.30;99.90;;;;;;5062216;28;20083;-75
2022/10/26 00:52:24;;;;;;;2.42;0.50;;;9.20;99.90;;;;;;5064676;28;20029;-75
2022/10/26 00:54:51;;;;;;;2.35;0.52;;;9.20;99.90;;;;;;5061407;28;20035;-75
2022/10/26 00:57:17;;;;;;;1.33;0.47;;;9.20;99.90;;;;;;5045660;28;20128;-77
2022/10/26 00:59:45;;;;;;;0.80;0.32;;;9.40;99.90;;;;;;5064315;28;20077;-76
2022/10/26 01:02:11;;;;;;;2.42;0.30;;;9.40;99.90;;;;;;5064253;28;20028;-82
2022/10/26 01:04:37;;;;;;;2.58;1.00;;;9.50;99.90;;;;;;5063163;28;20042;-82
2022/10/26 01:07:05;;;;;;;2.20;0.40;;;9.60;99.90;;;;;;5050053;28;20032;-83
2022/10/26 01:09:31;;;;;;;2.25;0.43;;;9.70;99.90;;;;;;5061507;28;20544;-75
2022/10/26 01:11:57;;;;;;;1.92;0.40;;;9.70;99.90;;;;;;5063587;28;20029;-75
2022/10/26 01:14:26;;;;;;;1.92;0.60;;;9.60;99.90;;;;;;5064138;28;20051;-75
2022/10/26 01:17:06;;;;;;;1.42;0.55;;;9.80;99.90;;;;;;5061352;28;20120;-76
2022/10/26 01:19:52;;;;;;;1.70;0.50;;;9.90;99.90;;;;;;5064845;28;20256;-83
2022/10/26 01:22:28;;;;;;;2.15;0.40;;;9.90;99.90;;;;;;5061836;28;20036;-83
2022/10/26 01:25:27;;;;;;;2.78;0.50;;;9.80;99.90;;;;;;5043525;28;20033;-75
2022/10/26 01:27:53;;;;;;;2.10;0.57;;;9.80;99.90;;;;;;5055202;28;20032;-75
2022/10/26 01:30:34;;;;;;;2.25;0.55;;;9.80;99.90;;;;;;5062702;28;20119;-75
2022/10/26 01:33:32;;;;;;;1.88;0.55;;;9.80;99.90;;;;;;5054356;28;20525;-75
2022/10/26 01:36:33;;;;;;;2.30;0.63;;;10.00;99.90;;;;;;5044496;28;20881;-80
2022/10/26 01:39:09;;;;;;;1.90;0.50;;;10.00;99.90;;;;;;5063633;28;20036;-75
2022/10/26 01:41:44;;;;;;;2.40;0.90;;;10.10;99.90;;;;;;5064207;28;20021;-82
2022/10/26 01:44:17;;;;;;;2.15;0.55;;;10.20;99.90;;;;;;5064337;28;20032;-75
2022/10/26 01:46:45;;;;;;;3.45;0.60;;;10.10;99.90;;;;;;5056373;28;20028;-78
2022/10/26 01:49:14;;;;;;;2.00;0.60;;;10.30;99.90;;;;;;5062505;28;20069;-75
2022/10/26 01:51:41;;;;;;;2.45;0.60;;;10.30;99.90;;;;;;5063680;28;20039;-82
2022/10/26 01:54:07;;;;;;;2.90;0.60;;;10.20;99.90;;;;;;5062734;28;20055;-81
2022/10/26 01:56:39;;;;;;;3.83;0.55;;;10.30;99.90;;;;;;5063659;28;20024;-79
2022/10/26 01:59:20;;;;;;;3.05;0.85;;;10.40;99.90;;;;;;5064636;28;20029;-75
2022/10/26 02:01:46;;;;;;;2.63;0.70;;;10.30;99.90;;;;;;5045407;28;20028;-79
2022/10/26 02:04:17;;;;;;;1.40;0.50;;;10.40;99.90;;;;;;5060125;28;20032;-81
2022/10/26 02:07:03;;;;;;;3.15;0.70;;;10.40;99.90;;;;;;5055889;28;20389;-75
2022/10/26 02:09:53;;;;;;;2.50;0.50;;;10.40;99.90;;;;;;5062175;28;20040;-75
2022/10/26 02:12:33;;;;;;;2.40;0.68;;;10.30;99.90;;;;;;5046142;28;20119;-78
2022/10/26 02:15:20;;;;;;;2.37;0.70;;;10.20;99.90;;;;;;5063932;28;20540;-76
2022/10/26 02:17:52;;;;;;;1.20;0.50;;;10.20;99.90;;;;;;5062954;28;20035;-79
2022/10/26 02:20:27;;;;;;;1.90;0.68;;;10.30;99.90;;;;;;5063583;28;20025;-75
2022/10/26 02:22:54;;;;;;;2.88;0.63;;;10.40;99.90;;;;;;5059237;28;20377;-77
2022/10/26 02:25:24;;;;;;;2.50;0.70;;;10.40;99.90;;;;;;5060618;28;20029;-76
2022/10/26 02:27:59;;;;;;;3.20;0.55;;;10.40;99.90;;;;;;5047286;28;20071;-75
2022/10/26 02:30:25;;;;;;;1.48;0.50;;;10.40;99.90;;;;;;5059193;28;20116;-75
2022/10/26 02:32:53;;;;;;;1.70;0.43;;;10.50;99.90;;;;;;5062533;28;20051;-82
2022/10/26 02:35:23;;;;;;;2.15;0.60;;;10.50;99.90;;;;;;5063250;28;20439;-79
2022/10/26 02:37:51;;;;;;;3.22;0.60;;;10.50;99.90;;;;;;5060812;28;20029;-75
2022/10/26 02:40:21;;;;;;;3.05;0.68;;;10.50;99.90;;;;;;5060356;28;20381;-81
2022/10/26 02:42:48;;;;;;;2.72;0.60;;;10.60;99.90;;;;;;5061570;28;20020;-75
2022/10/26 02:45:19;;;;;;;2.35;0.60;;;10.70;99.90;;;;;;5062266;28;20024;-75
2022/10/26 02:47:45;;;;;;;3.65;1.10;;;10.70;99.90;;;;;;5044627;28;20036;-77
2022/10/26 02:50:11;;;;;;;2.90;0.60;;;10.70;99.90;;;;;;5064459;28;20020;-81
2022/10/26 02:52:58;;;;;;;3.22;0.70;;;10.70;99.90;;;;;;5052678;28;20033;-75
2022/10/26 02:55:32;;;;;;;1.80;0.50;;;10.80;99.90;;;;;;5080720;28;20052;-79
2022/10/26 02:58:02;;;;;;;2.20;0.50;;;10.70;99.90;;;;;;5079100;28;20032;-75
2022/10/26 03:00:28;;;;;;;2.78;0.50;;;10.80;99.90;;;;;;5061651;28;20024;-81
2022/10/26 03:02:57;;;;;;;1.90;0.68;;;10.80;99.90;;;;;;5066616;28;20063;-81
2022/10/26 03:05:29;;;;;;;2.95;0.50;;;10.90;99.90;;;;;;5065118;28;20354;-76
2022/10/26 03:07:56;;;;;;;1.80;0.65;;;10.90;99.90;;;;;;5065650;28;20118;-81
2022/10/26 03:10:22;;;;;;;2.22;0.50;;;10.80;99.90;;;;;;5047457;28;20029;-76
2022/10/26 03:12:48;;;;;;;2.38;0.60;;;10.80;99.90;;;;;;5068722;28;20036;-76
2022/10/26 03:15:14;;;;;;;2.30;0.98;;;10.80;99.90;;;;;;5051201;28;20037;-81
2022/10/26 03:17:40;;;;;;;1.88;0.50;;;10.90;99.90;;;;;;5068847;28;20487;-80
2022/10/26 03:20:07;;;;;;;2.00;0.55;;;10.80;99.90;;;;;;5066576;28;20020;-75
2022/10/26 03:22:32;;;;;;;2.03;0.60;;;10.90;99.90;;;;;;5066363;28;20388;-79
2022/10/26 03:24:58;;;;;;;2.30;0.52;;;10.90;99.90;;;;;;5066058;28;20040;-76
2022/10/26 03:27:25;;;;;;;1.90;0.50;;;10.80;99.90;;;;;;5077665;28;20021;-76
2022/10/26 03:29:51;;;;;;;2.08;0.50;;;10.90;99.90;;;;;;5067537;28;20532;-76
2022/10/26 03:32:17;;;;;;;1.60;0.50;;;10.90;99.90;;;;;;5065941;28;20040;-76
2022/10/26 03:34:43;;;;;;;1.85;0.50;;;10.90;99.90;;;;;;5061507;28;20024;-75
2022/10/26 03:37:08;;;;;;;3.00;0.60;;;10.90;99.90;;;;;;5064310;28;20516;-77
2022/10/26 03:39:34;;;;;;;2.88;0.50;;;11.00;99.90;;;;;;5065020;28;20520;-81
2022/10/26 03:42:00;;;;;;;2.22;0.55;;;11.00;99.90;;;;;;5065734;28;20024;-75
2022/10/26 03:44:25;;;;;;;1.73;0.45;;;11.00;99.90;;;;;;5066846;28;20047;-82
2022/10/26 03:46:51;;;;;;;2.92;0.57;;;11.00;99.90;;;;;;5066421;28;20108;-76
2022/10/26 03:49:17;;;;;;;2.88;0.63;;;11.00;99.90;;;;;;5064442;28;20493;-80
2022/10/26 03:51:42;;;;;;;2.63;0.50;;;11.10;99.90;;;;;;5068433;28;20029;-76
2022/10/26 03:54:08;;;;;;;2.97;0.50;;;11.10;99.90;;;;;;5064688;28;20045;-75
2022/10/26 03:56:33;;;;;;;2.53;0.52;;;11.10;99.90;;;;;;5064837;28;20013;-76
2022/10/26 03:58:59;;;;;;;1.65;0.50;;;11.10;99.90;;;;;;5050483;28;20438;-75
2022/10/26 04:01:25;;;;;;;1.90;0.50;;;11.10;99.90;;;;;;5067474;28;20107;-82
2022/10/26 04:03:50;;;;;;;3.55;0.50;;;11.10;99.90;;;;;;5065463;28;20527;-76
2022/10/26 04:06:16;;;;;;;1.75;0.60;;;11.10;99.90;;;;;;5065822;28;20028;-75
2022/10/26 04:08:42;;;;;;;3.47;0.60;;;11.20;99.90;;;;;;5062758;28;20115;-82
2022/10/26 04:11:07;;;;;;;3.42;0.70;;;11.10;99.90;;;;;;5065955;28;20602;-75
2022/10/26 04:13:33;;;;;;;1.90;0.50;;;11.20;99.90;;;;;;5067405;28;20450;-80
2022/10/26 04:15:59;;;;;;;2.22;0.60;;;11.20;99.90;;;;;;5051154;28;20074;-76
2022/10/26 04:18:24;;;;;;;2.55;0.60;;;11.10;99.90;;;;;;5064343;28;20067;-78
2022/10/26 04:20:50;;;;;;;1.00;0.40;;;11.10;99.90;;;;;;5064399;28;20024;-80
2022/10/26 04:23:17;;;;;;;1.70;0.50;;;11.00;99.90;;;;;;5075387;28;20078;-80
2022/10/26 04:25:43;;;;;;;4.28;0.50;;;11.00;99.90;;;;;;5068070;28;20047;-79
2022/10/26 04:28:10;;;;;;;1.10;0.40;;;11.10;99.90;;;;;;5049289;28;20540;-78
2022/10/26 04:30:36;;;;;;;1.38;0.40;;;11.00;99.90;;;;;;5063466;28;20508;-75
2022/10/26 04:33:03;;;;;;;1.40;0.50;;;11.00;99.90;;;;;;5066810;28;20037;-80
2022/10/26 04:35:29;;;;;;;2.33;0.40;;;11.00;99.90;;;;;;5063228;28;20473;-75
2022/10/26 04:37:59;;;;;;;1.70;0.40;;;10.90;99.90;;;;;;5063115;28;20032;-77
2022/10/26 04:40:25;;;;;;;2.33;0.40;;;10.90;99.90;;;;;;5078900;28;20024;-75
2022/10/26 04:42:51;;;;;;;2.05;0.65;;;10.90;99.90;;;;;;5075350;28;20047;-76
2022/10/26 04:45:17;;;;;;;2.40;0.60;;;10.90;99.90;;;;;;5066836;28;20032;-80
2022/10/26 04:47:42;;;;;;;1.33;0.40;;;10.80;99.90;;;;;;5064371;28;20016;-81
2022/10/26 04:50:09;;;;;;;1.90;0.40;;;10.80;99.90;;;;;;5048230;28;20469;-75
2022/10/26 04:52:35;;;;;;;2.75;0.50;;;10.80;99.90;;;;;;5065645;28;20085;-81
2022/10/26 04:55:04;;;;;;;2.30;0.50;;;10.80;99.90;;;;;;5067281;28;20032;-78
2022/10/26 04:57:31;;;;;;;1.10;0.40;;;10.80;99.90;;;;;;5064447;28;20044;-78
2022/10/26 04:59:56;;;;;;;2.80;0.38;;;10.90;99.90;;;;;;5063952;28;20031;-83
2022/10/26 05:02:22;;;;;;;1.60;0.40;;;10.90;99.90;;;;;;5063235;28;20017;-78
2022/10/26 05:04:47;;;;;;;1.63;0.40;;;10.90;99.90;;;;;;5061814;28;20634;-80
2022/10/26 05:07:13;;;;;;;1.60;0.40;;;11.00;99.90;;;;;;5062472;28;20035;-81
2022/10/26 05:09:39;;;;;;;1.15;0.30;;;11.00;99.90;;;;;;5066141;28;20028;-83
2022/10/26 05:12:04;;;;;;;1.40;0.32;;;11.00;99.90;;;;;;5063766;28;20384;-81
2022/10/26 05:14:30;;;;;;;1.75;0.40;;;11.10;99.90;;;;;;5064760;28;20048;-81
2022/10/26 05:16:56;;;;;;;2.25;1.08;;;11.10;99.90;;;;;;5060869;28;20028;-75
2022/10/26 05:19:22;;;;;;;1.95;0.40;;;11.10;99.90;;;;;;5062249;28;20645;-82
2022/10/26 05:21:48;;;;;;;1.20;0.40;;;11.30;99.90;;;;;;5064590;28;20032;-78
2022/10/26 05:24:13;;;;;;;2.35;0.40;;;11.30;99.90;;;;;;5061618;28;20029;-75
2022/10/26 05:26:39;;;;;;;2.20;0.70;;;11.30;99.90;;;;;;5048949;28;20028;-82
2022/10/26 05:29:05;;;;;;;1.88;0.40;;;11.30;99.90;;;;;;5062226;28;20030;-75
2022/10/26 05:31:30;;;;;;;2.00;0.40;;;11.30;99.90;;;;;;5044603;28;20028;-79
2022/10/26 05:33:56;;;;;;;2.33;0.50;;;11.30;99.90;;;;;;5064300;28;20412;-77
2022/10/26 05:36:21;;;;;;;1.63;0.40;;;11.40;99.90;;;;;;5062417;28;20020;-77
2022/10/26 05:38:47;;;;;;;1.85;0.40;;;11.50;99.90;;;;;;5061815;28;20021;-82
2022/10/26 05:41:13;;;;;;;1.30;0.30;;;11.50;99.90;;;;;;5062459;28;20382;-81
2022/10/26 05:43:38;;;;;;;1.17;0.40;;;11.50;99.90;;;;;;5066600;28;20036;-83
2022/10/26 05:46:04;;;;;;;1.75;0.40;;;11.50;99.90;;;;;;5043441;28;20067;-76
2022/10/26 05:48:30;;;;;;;0.88;0.30;;;11.60;99.90;;;;;;5062633;28;20037;-79
2022/10/26 05:51:00;;;;;;;1.65;0.30;;;11.60;99.90;;;;;;5073301;28;20025;-79
2022/10/26 05:53:26;;;;;;;;;;;11.70;99.90;;;;;;5062626;28;20079;-81
2022/10/26 05:55:52;;;;;;;1.10;0.30;;;11.60;99.90;;;;;;5063334;28;20380;-81
2022/10/26 05:58:18;;;;;;;1.65;0.30;;;11.60;99.90;;;;;;5074318;28;20035;-82
2022/10/26 06:01:10;;;;;;;2.30;0.30;;;11.70;99.90;;;;;;5064203;28;20025;-81
2022/10/26 06:03:38;;;;;;;1.17;0.30;;;11.70;99.90;;;;;;5058062;28;20499;-78
2022/10/26 06:06:06;;;;;;;3.40;0.70;;;11.70;99.90;;;;;;5049228;28;20036;-81
2022/10/26 06:08:32;;;;;;;1.60;0.30;;;11.80;99.90;;;;;;5060627;28;20021;-77
2022/10/26 06:11:01;;;;;;;1.20;0.40;;;11.80;99.90;;;;;;5065388;28;20439;-80
2022/10/26 06:13:27;;;;;;;2.38;0.30;;;11.80;99.90;;;;;;5062335;28;20054;-81
2022/10/26 06:16:44;;;;;;;1.83;0.40;;;11.80;99.90;;;;;;5065154;28;20420;-77
2022/10/26 06:19:42;;;;;;;1.10;0.30;;;11.80;99.90;;;;;;5058305;28;20025;-76
2022/10/26 06:22:27;;;;;;;1.40;0.38;;;11.80;99.90;;;;;;5059777;28;20036;-76
2022/10/26 06:25:18;;;;;;;1.85;0.30;;;11.80;99.90;;;;;;5067243;28;20051;-76
2022/10/26 06:28:05;;;;;;;1.92;0.30;;;11.80;99.90;;;;;;5047133;28;20040;-82
2022/10/26 06:30:31;;;;;;;1.30;0.38;;;11.90;99.90;;;;;;5065141;28;20477;-79
2022/10/26 06:33:00;;;;;;;1.13;0.30;;;11.90;99.90;;;;;;5067773;28;20052;-76
2022/10/26 06:36:05;;;;;;;1.92;0.30;;;11.90;99.90;;;;;;5068981;28;20108;-82
2022/10/26 06:38:33;;;;;;;1.83;0.30;;;11.90;99.90;;;;;;5064553;28;20028;-79
2022/10/26 06:41:00;;;;;;;2.08;0.50;;;12.00;99.90;;;;;;5059741;28;20038;-81
2022/10/26 06:43:29;;;;;;;2.25;0.30;;;12.00;99.90;;;;;;5065610;28;20025;-76
2022/10/26 06:46:23;;;;;;;1.08;0.32;;;12.00;99.90;;;;;;5063954;28;20045;-82
2022/10/26 06:49:10;;;;;;;1.00;0.30;;;12.00;99.90;;;;;;5065335;28;20525;-79
2022/10/26 06:52:00;;;;;;;1.60;0.40;;;12.00;99.90;;;;;;5057267;28;20025;-81
2022/10/26 06:54:48;;;;;;;;;;;12.10;99.90;;;;;;5065169;28;20052;-83
2022/10/26 06:57:15;;;;;;;0.80;0.30;;;12.10;99.90;;;;;;5061904;28;19915;-79
2022/10/26 06:59:50;;;;;;;1.35;0.28;;;12.10;99.90;;;;;;5068024;28;20028;-80
2022/10/26 07:02:16;;;;;;;1.48;0.20;;;12.10;99.90;;;;;;5067681;28;20547;-76
2022/10/26 07:04:43;;;;;;;1.20;0.30;;;12.10;99.90;;;;;;5069166;28;20459;-77
2022/10/26 07:07:16;;;;;;;1.15;0.30;;;12.10;99.90;;;;;;5048146;28;20101;-81
2022/10/26 07:09:42;;;;;;;1.45;0.40;;;12.10;99.90;;;;;;5063884;28;20035;-78
2022/10/26 07:12:08;;;;;;;1.25;0.30;;;12.20;99.90;;;;;;5064870;28;20033;-76
2022/10/26 07:14:33;;;;;;;2.13;0.30;;;12.20;99.90;;;;;;5068699;28;20048;-76
2022/10/26 07:16:59;;;;;;;1.42;0.30;;;12.20;99.90;;;;;;5064102;28;20028;-79
2022/10/26 07:19:25;;;;;;;1.55;0.40;;;12.30;99.90;;;;;;5049240;28;20032;-76
2022/10/26 07:21:55;;;;;;;1.88;0.38;;;12.30;99.90;;;;;;5067525;28;20065;-77
2022/10/26 07:24:22;;;;;;;1.45;0.30;;;12.20;99.90;;;;;;5067067;28;20024;-76
2022/10/26 07:26:47;;;;;;;1.10;0.30;;;12.30;99.90;;;;;;5063292;28;20031;-78
2022/10/26 07:29:13;;;;;;;1.38;0.30;;;12.30;99.90;;;;;;5064191;28;20021;-82
2022/10/26 07:31:38;;;;;;;1.70;0.30;;;12.40;99.90;;;;;;5050918;28;20461;-79
2022/10/26 07:34:04;;;;;;;1.33;0.30;;;12.40;99.90;;;;;;5066839;28;20032;-81
2022/10/26 07:36:30;;;;;;;1.98;0.30;;;12.50;99.90;;;;;;5065275;28;20411;-77
2022/10/26 07:38:55;;;;;;;1.15;0.38;;;12.60;99.90;;;;;;5055188;28;20031;-82
2022/10/26 07:41:21;;;;;;;0.50;0.20;;;12.70;99.90;;;;;;5065313;28;20430;-81
2022/10/26 07:43:49;;;;;;;1.70;0.30;;;12.70;99.90;;;;;;5067505;28;20024;-77
2022/10/26 07:46:15;;;;;;;0.93;0.30;;;12.80;99.90;;;;;;5064875;28;20487;-80
2022/10/26 07:48:41;;;;;;;2.65;0.35;;;12.80;99.90;;;;;;5065005;28;20028;-77
2022/10/26 07:51:07;;;;;;;1.55;0.30;;;12.90;99.90;;;;;;5065824;28;20040;-79
2022/10/26 07:53:33;;;;;;;1.00;0.30;;;12.90;99.90;;;;;;5049201;28;20400;-81
2022/10/26 07:55:58;;;;;;;2.28;0.43;;;12.90;99.90;;;;;;5065068;28;20028;-77
2022/10/26 07:58:26;;;;;;;1.23;0.30;;;12.90;99.90;;;;;;5062195;28;20047;-83
2022/10/26 08:00:52;;;;;;;1.95;0.30;;;13.00;99.90;;;;;;5051854;28;20040;-77
2022/10/26 08:03:19;;;;;;;2.08;0.30;;;13.10;99.90;;;;;;5061227;28;20029;-77
2022/10/26 08:05:55;;;;;;;1.92;0.40;;;13.20;99.90;;;;;;5057651;28;20047;-80
2022/10/26 08:08:20;;;;;;;1.00;0.30;;;13.30;99.90;;;;;;5056221;28;20397;-77
2022/10/26 08:10:47;;;;;;;1.85;0.38;;;13.50;99.90;;;;;;5055729;28;20194;-83
2022/10/26 08:13:13;;;;;;;1.00;0.20;;;13.50;99.90;;;;;;5056601;28;20190;-76
2022/10/26 08:15:39;;;;;;;1.33;0.25;;;13.70;99.90;;;;;;5055508;28;20135;-80
2022/10/26 08:18:05;;;;;;;0.82;0.30;;;13.80;99.90;;;;;;5045389;28;20029;-82
2022/10/26 08:20:32;;;;;;;1.33;0.40;;;13.90;99.90;;;;;;5056723;28;20037;-83
2022/10/26 08:22:58;;;;;;;2.45;0.50;;;14.00;99.90;;;;;;5057080;28;20467;-83
2022/10/26 08:25:24;;;;;;;2.22;0.40;;;14.10;99.90;;;;;;5055125;28;20358;-82
2022/10/26 08:27:50;;;;;;;2.35;0.50;;;14.20;99.90;;;;;;5058131;28;20028;-77
2022/10/26 08:30:16;;;;;;;0.98;0.30;;;14.30;99.90;;;;;;5055725;28;20492;-82
2022/10/26 08:32:41;;;;;;;3.15;0.40;;;14.40;99.90;;;;;;5062328;28;20033;-78
2022/10/26 08:35:08;;;;;;;2.35;0.38;;;14.50;99.90;;;;;;5060026;28;20040;-80
2022/10/26 08:37:34;;;;;;;2.55;0.73;;;14.70;99.90;;;;;;5063244;28;20029;-82
2022/10/26 08:40:00;;;;;;;1.83;0.30;;;14.70;99.90;;;;;;5058029;28;20043;-80
2022/10/26 08:42:35;;;;;;;1.25;0.38;;;14.80;99.90;;;;;;5056978;28;20028;-82
2022/10/26 08:45:16;;;;;;;1.85;0.30;;;14.90;99.90;;;;;;5039716;28;20120;-84
2022/10/26 08:47:48;;;;;;;1.08;0.47;;;15.10;99.90;;;;;;5058386;28;20169;-77
2022/10/26 08:50:26;;;;;;;1.90;0.40;;;15.20;99.90;;;;;;5054367;28;20032;-82
2022/10/26 08:53:03;;;;;;;3.10;0.40;;;15.30;99.90;;;;;;5038272;28;20542;-83
2022/10/26 08:55:55;;;;;;;1.10;0.40;;;15.40;99.90;;;;;;5059417;28;20039;-81
2022/10/26 08:58:27;;;;;;;1.25;0.30;;;15.60;99.90;;;;;;5040510;28;20029;-79
2022/10/26 09:00:53;;;;;;;2.20;0.22;;;15.60;99.90;;;;;;5046261;28;20047;-76
2022/10/26 09:03:19;;;;;;;1.20;0.30;;;15.80;99.90;;;;;;5055062;28;20021;-77
2022/10/26 09:05:50;;;;;;;1.10;0.25;;;15.90;99.90;;;;;;5056157;28;20047;-78
2022/10/26 09:08:30;;;;;;;0.98;0.30;;;16.00;99.90;;;;;;5055002;28;20116;-79
2022/10/26 09:11:11;;;;;;;1.00;0.20;;;16.20;99.90;;;;;;5055905;28;20032;-78
2022/10/26 09:13:54;;;;;;;0.88;0.10;;;16.20;99.90;;;;;;5054510;28;20044;-77
2022/10/26 09:16:24;;;;;;;1.05;0.20;;;16.40;99.90;;;;;;5055367;28;20056;-79
2022/10/26 09:19:01;;;;;;;2.42;0.20;;;16.50;99.90;;;;;;5055132;28;20032;-80
2022/10/26 09:22:05;;;;;;;0.90;0.10;;;16.60;99.90;;;;;;5036706;28;20029;-80
2022/10/26 09:24:33;;;;;;;1.17;0.20;;;16.70;99.90;;;;;;5011570;28;20384;-84
2022/10/26 09:27:15;;;;;;;2.15;0.30;;;16.80;99.90;;;;;;5055278;28;20032;-83
2022/10/26 09:29:42;;;;;;;1.33;0.20;;;16.80;99.90;;;;;;5056051;28;20029;-83
2022/10/26 09:32:22;;;;;;;1.95;0.30;;;17.00;99.90;;;;;;5058761;28;20029;-75
2022/10/26 09:34:52;;;;;;;1.80;0.32;;;17.00;99.90;;;;;;5059012;28;20067;-83
2022/10/26 09:37:31;;;;;;;2.88;0.30;;;17.00;99.90;;;;;;5054602;28;20043;-84
2022/10/26 09:40:18;;;;;;;1.45;0.30;;;17.10;99.90;;;;;;5053320;28;20024;-80
2022/10/26 09:42:44;;;;;;;1.25;0.30;;;17.20;99.90;;;;;;5053905;28;20021;-79
2022/10/26 09:45:28;;;;;;;1.65;0.30;;;17.30;99.90;;;;;;5058220;28;20652;-79
2022/10/26 09:48:20;;;;;;;1.13;0.30;;;17.40;99.90;;;;;;5055389;28;20469;-82
2022/10/26 09:50:48;;;;;;;1.20;0.30;;;17.50;99.90;;;;;;5049644;28;20029;-81
2022/10/26 09:53:15;;;;;;;0.95;0.30;;;17.50;99.90;;;;;;5055500;28;20070;-82
2022/10/26 09:55:45;;;;;;;1.67;0.25;;;17.50;99.90;;;;;;5056584;28;20029;-79
2022/10/26 09:58:36;;;;;;;1.17;0.30;;;17.60;99.90;;;;;;5055672;28;20098;-83
2022/10/26 10:01:02;;;;;;;2.17;0.20;;;17.80;99.90;;;;;;5055883;28;20110;-82
2022/10/26 10:03:30;;;;;;;1.98;0.30;;;17.90;99.90;;;;;;5053906;28;20055;-81
2022/10/26 10:06:22;;;;;;;0.70;0.30;;;17.90;99.90;;;;;;5056597;28;20028;-80
2022/10/26 10:09:05;;;;;;;2.72;0.47;;;17.90;99.90;;;;;;5069583;28;20036;-81
2022/10/26 10:11:42;;;;;;;1.88;0.30;;;17.90;99.90;;;;;;5054514;28;20060;-83
2022/10/26 10:14:14;;;;;;;2.25;0.40;;;18.10;99.90;;;;;;5055490;28;20045;-75
2022/10/26 10:16:48;;;;;;;3.33;0.50;;;18.10;99.90;;;;;;5055109;28;20043;-85
2022/10/26 10:19:22;;;;;;;2.00;0.50;;;18.10;99.90;;;;;;5055734;28;20486;-79
2022/10/26 10:21:49;;;;;;;2.92;0.68;;;18.10;99.90;;;;;;5053307;28;20021;-76
2022/10/26 10:24:24;;;;;;;1.23;0.40;;;17.90;99.90;;;;;;5053279;28;20032;-76
2022/10/26 10:26:58;;;;;;;3.05;0.50;;;17.90;99.90;;;;;;5037586;28;20036;-80
2022/10/26 10:29:29;;;;;;;1.90;0.45;;;17.90;99.90;;;;;;5053655;28;20063;-80
2022/10/26 10:32:00;;;;;;;2.53;0.68;;;17.90;99.90;;;;;;5055826;28;20119;-83
2022/10/26 10:34:28;;;;;;;1.60;0.32;;;18.00;99.90;;;;;;5037831;28;20040;-84
2022/10/26 10:36:54;;;;;;;4.53;0.70;;;18.20;99.90;;;;;;5043696;28;20079;-76
2022/10/26 10:39:33;;;;;;;4.07;0.60;;;18.10;99.90;;;;;;5057122;28;20041;-77
2022/10/26 10:42:00;;;;;;;3.23;0.50;;;18.10;99.90;;;;;;5055895;28;20039;-76
2022/10/26 10:44:30;;;;;;;4.03;0.50;;;18.30;99.90;;;;;;5053816;28;20428;-82
2022/10/26 10:47:01;;;;;;;1.80;0.55;;;18.40;99.90;;;;;;5072793;28;20051;-83
2022/10/26 10:49:29;;;;;;;3.03;0.60;;;18.50;99.90;;;;;;5054473;28;20410;-80
2022/10/26 10:51:55;;;;;;;2.72;0.70;;;18.60;99.90;;;;;;5037618;28;20039;-77
2022/10/26 10:54:26;;;;;;;3.78;0.60;;;18.50;99.90;;;;;;5040352;28;20037;-76
2022/10/26 10:57:04;;;;;;;1.90;0.52;;;18.60;99.90;;;;;;5054989;28;20036;-78
2022/10/26 10:59:50;;;;;;;1.70;0.50;;;18.70;99.90;;;;;;5053762;28;20047;-77
2022/10/26 11:02:33;;;;;;;2.33;0.70;;;18.50;99.90;;;;;;5054345;28;20032;-78
2022/10/26 11:05:05;;;;;;;2.58;0.73;;;18.70;99.90;;;;;;5054311;28;20036;-79
2022/10/26 11:07:41;;;;;;;1.30;0.50;;;18.60;99.90;;;;;;5056308;28;20024;-76
2022/10/26 11:10:14;;;;;;;5.25;0.50;;;18.70;99.90;;;;;;5057900;28;20385;-82
2022/10/26 11:13:14;;;;;;;2.58;0.52;;;18.70;99.90;;;;;;5060391;28;20128;-83
2022/10/26 11:15:41;;;;;;;2.38;0.50;;;18.60;99.90;;;;;;5058658;28;20041;-82
2022/10/26 11:18:27;;;;;;;2.80;0.63;;;18.90;99.90;;;;;;5071214;28;20470;-83
2022/10/26 11:21:03;;;;;;;3.95;1.17;;;18.90;99.90;;;;;;5055042;28;20378;-84
2022/10/26 11:23:37;;;;;;;2.28;0.60;;;18.70;99.90;;;;;;5063920;28;20025;-77
2022/10/26 11:26:23;;;;;;;5.10;0.60;;;19.00;99.90;;;;;;5057457;28;20036;-80
2022/10/26 11:28:57;;;;;;;3.47;0.70;;;18.90;99.90;;;;;;5074119;28;20024;-83
2022/10/26 11:31:32;;;;;;;3.78;0.93;;;18.90;99.90;;;;;;5058141;28;20316;-76
2022/10/26 11:34:25;;;;;;;2.67;0.50;;;19.00;99.90;;;;;;5057750;28;20116;-83
2022/10/26 11:36:57;;;;;;;2.75;0.40;;;19.00;99.90;;;;;;5056283;28;20107;-77
2022/10/26 11:39:37;;;;;;;1.77;0.40;;;19.10;99.90;;;;;;5056891;28;20473;-81
2022/10/26 11:42:43;;;;;;;1.27;0.50;;;19.10;99.90;;;;;;5063444;28;20115;-77
2022/10/26 11:45:15;;;;;;;2.47;0.50;;;19.20;99.90;;;;;;5053932;28;20033;-83
2022/10/26 11:48:20;;;;;;;1.27;0.40;;;19.20;99.90;;;;;;5056371;28;20028;-79
2022/10/26 11:51:12;;;;;;;2.28;0.32;;;19.40;99.90;;;;;;5057279;28;20069;-83
2022/10/26 11:53:42;;;;;;;2.95;0.40;;;19.30;99.90;;;;;;5054442;28;20532;-81
2022/10/26 11:56:28;;;;;;;2.65;0.50;;;19.40;99.90;;;;;;5056510;28;20033;-81
2022/10/26 11:58:55;;;;;;;2.47;0.50;;;19.20;99.90;;;;;;5039370;28;20051;-82
2022/10/26 12:01:22;;;;;;;2.05;0.40;;;19.30;99.90;;;;;;5054876;28;20103;-82
2022/10/26 12:03:51;;;;;;;3.03;0.70;;;19.30;99.90;;;;;;5058973;28;20044;-83
2022/10/26 12:06:23;;;;;;;;;;;19.30;99.90;;;;;;5056200;28;20040;-81
2022/10/26 12:09:07;;;;;;;5.10;0.60;;;19.30;99.90;;;;;;5058385;28;19985;-80
2022/10/26 12:12:00;;;;;;;2.83;0.50;;;19.20;99.90;;;;;;5057819;28;20419;-81
2022/10/26 12:14:41;;;;;;;2.60;0.45;;;19.20;99.90;;;;;;5061714;28;20057;-77
2022/10/26 12:17:30;;;;;;;2.20;0.50;;;19.10;99.90;;;;;;5071154;28;20504;-75
2022/10/26 12:20:18;;;;;;;6.37;0.50;;;19.00;99.90;;;;;;5056731;28;20032;-78
2022/10/26 12:22:44;;;;;;;2.03;0.40;;;19.10;99.90;;;;;;5056184;28;20070;-75
2022/10/26 12:25:13;;;;;;;3.75;0.40;;;19.10;99.90;;;;;;5057875;28;20177;-79
2022/10/26 12:27:38;;;;;;;3.13;0.40;;;19.10;99.90;;;;;;5055240;28;20032;-76
2022/10/26 12:30:16;;;;;;;2.15;0.30;;;19.20;99.90;;;;;;5055914;28;20505;-81
2022/10/26 12:32:48;;;;;;;1.52;0.30;;;19.40;99.90;;;;;;5057128;28;20040;-75
2022/10/26 12:35:41;;;;;;;1.55;0.32;;;19.50;99.90;;;;;;5056817;28;20453;-76
2022/10/26 12:38:47;;;;;;;1.40;0.32;;;19.50;99.90;;;;;;5061210;28;20054;-75
2022/10/26 12:41:21;;;;;;;1.98;0.38;;;19.50;99.90;;;;;;5039844;28;20020;-80
2022/10/26 12:43:47;;;;;;;2.33;0.30;;;19.50;99.90;;;;;;5052978;28;20103;-80
2022/10/26 12:46:12;;;;;;;3.15;0.30;;;19.60;99.90;;;;;;5070274;28;20115;-76
2022/10/26 12:48:46;;;;;;;1.20;0.30;;;19.60;99.90;;;;;;5057793;28;20151;-75
2022/10/26 12:51:21;;;;;;;2.08;0.50;;;19.60;99.90;;;;;;5073440;28;20024;-76
2022/10/26 12:54:30;;;;;;;1.38;0.30;;;19.60;99.90;;;;;;5056054;28;20037;-80
2022/10/26 12:57:15;;;;;;;1.58;0.30;;;19.40;99.90;;;;;;5052176;28;20116;-80
2022/10/26 12:59:50;;;;;;;2.35;0.40;;;19.30;99.90;;;;;;5038159;28;20032;-76
2022/10/26 13:02:36;;;;;;;2.97;0.32;;;19.40;99.90;;;;;;5057266;28;20361;-81
2022/10/26 13:05:18;;;;;;;1.25;0.30;;;19.40;99.90;;;;;;5053437;28;20052;-75
2022/10/26 13:07:45;;;;;;;2.05;0.40;;;19.40;99.90;;;;;;5055784;28;20020;-77
2022/10/26 13:10:11;;;;;;;1.33;0.40;;;19.60;99.90;;;;;;5071298;28;20043;-75
2022/10/26 13:13:00;;;;;;;2.10;0.47;;;19.60;99.90;;;;;;5056744;28;20132;-75